KBIS/BIS METAR and TAF weather

Enter ICAO airport designator
Station Type Date Time Source
KBIS METAR 2020/04/06 07:52 UTC NOAA

KBIS 060752Z AUTO 07006KT 10SM CLR 01/00 A2973 RMK AO2 SLP083 T00110000


Station Type Date Time Source
KBIS Decoded METAR 2020/04/06 07:52 UTC NOAA

BISMARCK MUNICIPAL AIRPORT, ND, United States (KBIS) 46-47N 100-45W 503M
Apr 06, 2020 - 03:52 AM EDT / 2020.04.06 0752 UTC
Wind: from the ENE (070 degrees) at 7 MPH (6 KT):0
Visibility: 10 mile(s):0
Sky conditions: clear
Temperature: 34.0 F (1.1 C)
Windchill: 28 F (-2 C):1
Dew Point: 32.0 F (0.0 C)
Relative Humidity: 92%
Pressure (altimeter): 29.73 in. Hg (1006 hPa)
ob: KBIS 060752Z AUTO 07006KT 10SM CLR 01/00 A2973 RMK AO2 SLP083 T00110000
cycle: 8

Station Type Date Time Source
KBIS TAF 2020/04/06 06:40 UTC NOAA

TAF KBIS 060537Z 0606/0706 08006KT P6SM SCT028 OVC040
FM061300 VRB03KT P6SM OVC017
FM061900 12005KT P6SM BKN045
FM070300 VRB03KT P6SM VCSH OVC028

Example: see airport list